sensor_id;sensor_type;location;lat;lon;timestamp;P1;durP1;ratioP1;P2;durP2;ratioP2
50126;SDS011;36024;47.974;16.398;2022-11-20T00:01:25;26.37;;;17.73;;
50126;SDS011;36024;47.974;16.398;2022-11-20T00:03:54;23.67;;;16.80;;
50126;SDS011;36024;47.974;16.398;2022-11-20T00:06:25;21.57;;;15.93;;
50126;SDS011;36024;47.974;16.398;2022-11-20T00:08:55;25.43;;;17.90;;
50126;SDS011;36024;47.974;16.398;2022-11-20T00:11:24;22.60;;;15.80;;
50126;SDS011;36024;47.974;16.398;2022-11-20T00:13:54;23.87;;;16.17;;
50126;SDS011;36024;47.974;16.398;2022-11-20T00:16:25;20.37;;;15.60;;
50126;SDS011;36024;47.974;16.398;2022-11-20T00:18:54;21.80;;;15.23;;
50126;SDS011;36024;47.974;16.398;2022-11-20T00:21:23;21.50;;;15.27;;
50126;SDS011;36024;47.974;16.398;2022-11-20T00:23:52;20.63;;;14.47;;
50126;SDS011;36024;47.974;16.398;2022-11-20T00:26:22;22.13;;;14.73;;
50126;SDS011;36024;47.974;16.398;2022-11-20T00:28:51;21.13;;;15.33;;
50126;SDS011;36024;47.974;16.398;2022-11-20T00:31:23;20.60;;;14.73;;
50126;SDS011;36024;47.974;16.398;2022-11-20T00:33:51;20.67;;;14.73;;
50126;SDS011;36024;47.974;16.398;2022-11-20T00:36:27;24.20;;;15.43;;
50126;SDS011;36024;47.974;16.398;2022-11-20T00:38:56;21.57;;;14.83;;
50126;SDS011;36024;47.974;16.398;2022-11-20T00:41:26;22.70;;;15.17;;
50126;SDS011;36024;47.974;16.398;2022-11-20T00:43:54;22.87;;;15.70;;
50126;SDS011;36024;47.974;16.398;2022-11-20T00:46:23;21.17;;;15.37;;
50126;SDS011;36024;47.974;16.398;2022-11-20T00:48:52;20.97;;;15.47;;
50126;SDS011;36024;47.974;16.398;2022-11-20T00:51:21;23.53;;;16.30;;
50126;SDS011;36024;47.974;16.398;2022-11-20T00:53:51;23.03;;;15.63;;
50126;SDS011;36024;47.974;16.398;2022-11-20T00:56:19;22.13;;;16.37;;
50126;SDS011;36024;47.974;16.398;2022-11-20T00:58:47;22.67;;;15.87;;
50126;SDS011;36024;47.974;16.398;2022-11-20T01:01:20;25.70;;;16.33;;
50126;SDS011;36024;47.974;16.398;2022-11-20T01:03:52;24.07;;;16.30;;
50126;SDS011;36024;47.974;16.398;2022-11-20T01:06:22;23.83;;;15.83;;
50126;SDS011;36024;47.974;16.398;2022-11-20T01:08:55;22.90;;;16.47;;
50126;SDS011;36024;47.974;16.398;2022-11-20T01:11:25;20.70;;;15.57;;
50126;SDS011;36024;47.974;16.398;2022-11-20T01:13:57;22.60;;;16.13;;
50126;SDS011;36024;47.974;16.398;2022-11-20T01:16:36;23.70;;;15.80;;
50126;SDS011;36024;47.974;16.398;2022-11-20T01:19:06;23.27;;;15.67;;
50126;SDS011;36024;47.974;16.398;2022-11-20T01:21:43;23.40;;;15.53;;
50126;SDS011;36024;47.974;16.398;2022-11-20T01:24:12;24.23;;;16.00;;
50126;SDS011;36024;47.974;16.398;2022-11-20T01:26:41;23.63;;;16.07;;
50126;SDS011;36024;47.974;16.398;2022-11-20T01:29:12;24.83;;;16.63;;
50126;SDS011;36024;47.974;16.398;2022-11-20T01:31:42;21.87;;;15.40;;
50126;SDS011;36024;47.974;16.398;2022-11-20T01:34:10;23.50;;;16.67;;
50126;SDS011;36024;47.974;16.398;2022-11-20T01:41:12;24.47;;;16.33;;
50126;SDS011;36024;47.974;16.398;2022-11-20T01:43:59;22.97;;;15.80;;
50126;SDS011;36024;47.974;16.398;2022-11-20T01:46:33;26.93;;;16.23;;
50126;SDS011;36024;47.974;16.398;2022-11-20T01:49:16;23.47;;;16.57;;
50126;SDS011;36024;47.974;16.398;2022-11-20T01:51:49;22.30;;;15.70;;
50126;SDS011;36024;47.974;16.398;2022-11-20T01:54:19;24.90;;;16.33;;
50126;SDS011;36024;47.974;16.398;2022-11-20T01:56:51;23.03;;;16.07;;
50126;SDS011;36024;47.974;16.398;2022-11-20T01:59:18;22.13;;;16.43;;
50126;SDS011;36024;47.974;16.398;2022-11-20T02:01:47;22.23;;;16.70;;
50126;SDS011;36024;47.974;16.398;2022-11-20T02:04:17;21.70;;;16.60;;
50126;SDS011;36024;47.974;16.398;2022-11-20T02:06:48;23.17;;;16.47;;
50126;SDS011;36024;47.974;16.398;2022-11-20T02:09:19;24.27;;;17.10;;
50126;SDS011;36024;47.974;16.398;2022-11-20T02:11:47;22.93;;;16.80;;
50126;SDS011;36024;47.974;16.398;2022-11-20T02:14:16;21.97;;;16.40;;
50126;SDS011;36024;47.974;16.398;2022-11-20T02:16:45;22.63;;;16.70;;
50126;SDS011;36024;47.974;16.398;2022-11-20T02:19:28;23.00;;;16.43;;
50126;SDS011;36024;47.974;16.398;2022-11-20T02:22:14;20.90;;;16.07;;
50126;SDS011;36024;47.974;16.398;2022-11-20T02:24:47;23.17;;;16.33;;
50126;SDS011;36024;47.974;16.398;2022-11-20T02:27:15;22.90;;;16.27;;
50126;SDS011;36024;47.974;16.398;2022-11-20T02:32:33;23.47;;;17.07;;
50126;SDS011;36024;47.974;16.398;2022-11-20T02:35:06;21.40;;;15.97;;
50126;SDS011;36024;47.974;16.398;2022-11-20T02:38:00;22.00;;;15.93;;
50126;SDS011;36024;47.974;16.398;2022-11-20T02:40:30;22.47;;;16.37;;
50126;SDS011;36024;47.974;16.398;2022-11-20T02:42:58;21.70;;;16.10;;
50126;SDS011;36024;47.974;16.398;2022-11-20T02:45:26;25.37;;;17.20;;
50126;SDS011;36024;47.974;16.398;2022-11-20T02:47:54;21.53;;;16.37;;
50126;SDS011;36024;47.974;16.398;2022-11-20T02:50:22;21.53;;;16.40;;
50126;SDS011;36024;47.974;16.398;2022-11-20T02:52:49;23.27;;;16.40;;
50126;SDS011;36024;47.974;16.398;2022-11-20T02:55:17;22.30;;;16.37;;
50126;SDS011;36024;47.974;16.398;2022-11-20T02:57:44;22.03;;;15.73;;
50126;SDS011;36024;47.974;16.398;2022-11-20T03:00:11;21.10;;;16.10;;
50126;SDS011;36024;47.974;16.398;2022-11-20T03:02:40;21.87;;;15.87;;
50126;SDS011;36024;47.974;16.398;2022-11-20T03:05:10;22.80;;;16.47;;
50126;SDS011;36024;47.974;16.398;2022-11-20T03:07:39;22.93;;;15.67;;
50126;SDS011;36024;47.974;16.398;2022-11-20T03:10:06;23.00;;;16.57;;
50126;SDS011;36024;47.974;16.398;2022-11-20T03:12:33;20.63;;;15.53;;
50126;SDS011;36024;47.974;16.398;2022-11-20T03:15:04;22.80;;;16.10;;
50126;SDS011;36024;47.974;16.398;2022-11-20T03:17:31;22.23;;;16.60;;
50126;SDS011;36024;47.974;16.398;2022-11-20T03:20:01;21.63;;;15.23;;
50126;SDS011;36024;47.974;16.398;2022-11-20T03:22:30;22.73;;;16.00;;
50126;SDS011;36024;47.974;16.398;2022-11-20T03:24:58;22.87;;;15.83;;
50126;SDS011;36024;47.974;16.398;2022-11-20T03:27:25;22.17;;;16.27;;
50126;SDS011;36024;47.974;16.398;2022-11-20T03:29:52;22.50;;;16.33;;
50126;SDS011;36024;47.974;16.398;2022-11-20T03:32:19;23.63;;;16.60;;
50126;SDS011;36024;47.974;16.398;2022-11-20T03:34:47;23.13;;;16.23;;
50126;SDS011;36024;47.974;16.398;2022-11-20T03:37:18;22.97;;;15.97;;
50126;SDS011;36024;47.974;16.398;2022-11-20T03:39:51;23.00;;;16.70;;
50126;SDS011;36024;47.974;16.398;2022-11-20T03:42:27;23.30;;;16.27;;
50126;SDS011;36024;47.974;16.398;2022-11-20T03:45:17;22.87;;;16.47;;
50126;SDS011;36024;47.974;16.398;2022-11-20T03:47:46;22.70;;;15.93;;
50126;SDS011;36024;47.974;16.398;2022-11-20T03:50:16;23.50;;;16.27;;
50126;SDS011;36024;47.974;16.398;2022-11-20T03:52:45;23.93;;;17.10;;
50126;SDS011;36024;47.974;16.398;2022-11-20T03:55:14;23.70;;;16.93;;
50126;SDS011;36024;47.974;16.398;2022-11-20T03:57:44;24.80;;;17.93;;
50126;SDS011;36024;47.974;16.398;2022-11-20T04:00:15;22.77;;;17.33;;
50126;SDS011;36024;47.974;16.398;2022-11-20T04:02:43;22.60;;;16.57;;
50126;SDS011;36024;47.974;16.398;2022-11-20T04:05:16;23.00;;;17.20;;
50126;SDS011;36024;47.974;16.398;2022-11-20T04:08:07;25.93;;;17.43;;
50126;SDS011;36024;47.974;16.398;2022-11-20T04:10:42;25.30;;;17.23;;
50126;SDS011;36024;47.974;16.398;2022-11-20T04:13:14;27.17;;;18.27;;
50126;SDS011;36024;47.974;16.398;2022-11-20T04:15:49;23.37;;;16.43;;
50126;SDS011;36024;47.974;16.398;2022-11-20T04:18:22;23.23;;;16.57;;
50126;SDS011;36024;47.974;16.398;2022-11-20T04:20:55;22.80;;;16.93;;
50126;SDS011;36024;47.974;16.398;2022-11-20T04:23:35;22.97;;;16.60;;
50126;SDS011;36024;47.974;16.398;2022-11-20T04:26:09;22.57;;;16.63;;
50126;SDS011;36024;47.974;16.398;2022-11-20T04:28:40;24.63;;;16.30;;
50126;SDS011;36024;47.974;16.398;2022-11-20T04:31:11;22.37;;;16.27;;
50126;SDS011;36024;47.974;16.398;2022-11-20T04:33:46;21.23;;;16.13;;
50126;SDS011;36024;47.974;16.398;2022-11-20T04:36:23;21.60;;;15.93;;
50126;SDS011;36024;47.974;16.398;2022-11-20T04:39:01;22.97;;;16.37;;
50126;SDS011;36024;47.974;16.398;2022-11-20T04:41:44;23.63;;;16.97;;
50126;SDS011;36024;47.974;16.398;2022-11-20T04:45:05;25.57;;;17.17;;
50126;SDS011;36024;47.974;16.398;2022-11-20T04:47:35;23.77;;;16.60;;
50126;SDS011;36024;47.974;16.398;2022-11-20T04:50:06;23.87;;;17.07;;
50126;SDS011;36024;47.974;16.398;2022-11-20T04:52:36;24.87;;;16.57;;
50126;SDS011;36024;47.974;16.398;2022-11-20T04:55:07;25.43;;;17.20;;
50126;SDS011;36024;47.974;16.398;2022-11-20T04:57:38;23.67;;;16.73;;
50126;SDS011;36024;47.974;16.398;2022-11-20T05:00:08;24.40;;;16.80;;
50126;SDS011;36024;47.974;16.398;2022-11-20T05:02:39;24.00;;;16.37;;
50126;SDS011;36024;47.974;16.398;2022-11-20T05:05:17;25.17;;;17.27;;
50126;SDS011;36024;47.974;16.398;2022-11-20T05:07:47;24.57;;;17.03;;
50126;SDS011;36024;47.974;16.398;2022-11-20T05:10:32;28.47;;;19.00;;
50126;SDS011;36024;47.974;16.398;2022-11-20T05:13:06;27.50;;;19.20;;
50126;SDS011;36024;47.974;16.398;2022-11-20T05:15:34;27.47;;;19.07;;
50126;SDS011;36024;47.974;16.398;2022-11-20T05:18:08;31.87;;;21.87;;
50126;SDS011;36024;47.974;16.398;2022-11-20T05:20:35;32.73;;;23.53;;
50126;SDS011;36024;47.974;16.398;2022-11-20T05:23:03;28.40;;;19.20;;
50126;SDS011;36024;47.974;16.398;2022-11-20T05:25:31;28.17;;;19.90;;
50126;SDS011;36024;47.974;16.398;2022-11-20T05:28:00;25.50;;;18.70;;
50126;SDS011;36024;47.974;16.398;2022-11-20T05:30:31;29.60;;;20.83;;
50126;SDS011;36024;47.974;16.398;2022-11-20T05:33:25;31.07;;;21.40;;
50126;SDS011;36024;47.974;16.398;2022-11-20T05:36:03;28.67;;;19.90;;
50126;SDS011;36024;47.974;16.398;2022-11-20T05:38:32;29.10;;;20.33;;
50126;SDS011;36024;47.974;16.398;2022-11-20T05:41:22;28.53;;;19.87;;
50126;SDS011;36024;47.974;16.398;2022-11-20T05:43:51;26.87;;;18.83;;
50126;SDS011;36024;47.974;16.398;2022-11-20T05:46:27;25.30;;;18.00;;
50126;SDS011;36024;47.974;16.398;2022-11-20T05:49:03;26.27;;;18.07;;
50126;SDS011;36024;47.974;16.398;2022-11-20T05:51:34;26.80;;;17.83;;
50126;SDS011;36024;47.974;16.398;2022-11-20T05:54:10;25.67;;;17.67;;
50126;SDS011;36024;47.974;16.398;2022-11-20T05:56:57;26.07;;;17.77;;
50126;SDS011;36024;47.974;16.398;2022-11-20T05:59:51;25.73;;;17.13;;
50126;SDS011;36024;47.974;16.398;2022-11-20T06:02:18;26.50;;;17.67;;
50126;SDS011;36024;47.974;16.398;2022-11-20T06:04:49;25.00;;;17.80;;
50126;SDS011;36024;47.974;16.398;2022-11-20T08:13:59;27.07;;;20.07;;
50126;SDS011;36024;47.974;16.398;2022-11-20T08:16:48;29.10;;;21.23;;
50126;SDS011;36024;47.974;16.398;2022-11-20T08:19:16;28.33;;;20.00;;
50126;SDS011;36024;47.974;16.398;2022-11-20T08:21:44;29.70;;;20.47;;
50126;SDS011;36024;47.974;16.398;2022-11-20T08:24:11;26.47;;;20.00;;
50126;SDS011;36024;47.974;16.398;2022-11-20T08:26:38;31.13;;;20.57;;
50126;SDS011;36024;47.974;16.398;2022-11-20T08:29:07;30.50;;;21.80;;
50126;SDS011;36024;47.974;16.398;2022-11-20T08:31:34;29.80;;;21.43;;
50126;SDS011;36024;47.974;16.398;2022-11-20T08:34:00;28.57;;;21.37;;
50126;SDS011;36024;47.974;16.398;2022-11-20T08:36:34;28.87;;;20.97;;
50126;SDS011;36024;47.974;16.398;2022-11-20T08:39:01;28.00;;;20.30;;
50126;SDS011;36024;47.974;16.398;2022-11-20T08:41:28;25.30;;;20.20;;
50126;SDS011;36024;47.974;16.398;2022-11-20T08:43:58;26.70;;;19.83;;
50126;SDS011;36024;47.974;16.398;2022-11-20T08:46:26;27.73;;;20.67;;
50126;SDS011;36024;47.974;16.398;2022-11-20T08:49:01;25.63;;;20.07;;
50126;SDS011;36024;47.974;16.398;2022-11-20T08:51:28;27.20;;;20.60;;
50126;SDS011;36024;47.974;16.398;2022-11-20T08:53:55;24.20;;;19.40;;
50126;SDS011;36024;47.974;16.398;2022-11-20T08:56:22;25.37;;;18.87;;
50126;SDS011;36024;47.974;16.398;2022-11-20T08:58:49;28.33;;;19.90;;
50126;SDS011;36024;47.974;16.398;2022-11-20T09:01:38;26.40;;;19.20;;
50126;SDS011;36024;47.974;16.398;2022-11-20T09:04:05;25.83;;;19.70;;
50126;SDS011;36024;47.974;16.398;2022-11-20T09:06:31;26.20;;;20.43;;
50126;SDS011;36024;47.974;16.398;2022-11-20T09:08:58;28.03;;;21.63;;
50126;SDS011;36024;47.974;16.398;2022-11-20T09:11:31;29.60;;;22.97;;
50126;SDS011;36024;47.974;16.398;2022-11-20T09:13:58;29.97;;;23.77;;
50126;SDS011;36024;47.974;16.398;2022-11-20T09:16:25;27.60;;;20.67;;
50126;SDS011;36024;47.974;16.398;2022-11-20T09:18:51;26.73;;;20.07;;
50126;SDS011;36024;47.974;16.398;2022-11-20T09:21:38;26.30;;;20.47;;
50126;SDS011;36024;47.974;16.398;2022-11-20T09:24:04;26.63;;;19.67;;
50126;SDS011;36024;47.974;16.398;2022-11-20T09:26:31;26.60;;;20.03;;
50126;SDS011;36024;47.974;16.398;2022-11-20T09:28:58;23.87;;;18.73;;
50126;SDS011;36024;47.974;16.398;2022-11-20T09:31:25;23.63;;;19.07;;
50126;SDS011;36024;47.974;16.398;2022-11-20T09:33:52;24.13;;;19.37;;
50126;SDS011;36024;47.974;16.398;2022-11-20T09:36:19;24.73;;;19.43;;
50126;SDS011;36024;47.974;16.398;2022-11-20T09:38:46;25.00;;;19.37;;
50126;SDS011;36024;47.974;16.398;2022-11-20T09:44:19;24.87;;;19.83;;
50126;SDS011;36024;47.974;16.398;2022-11-20T09:47:02;25.37;;;19.70;;
50126;SDS011;36024;47.974;16.398;2022-11-20T09:55:04;22.23;;;18.27;;
50126;SDS011;36024;47.974;16.398;2022-11-20T09:57:36;25.33;;;19.33;;
50126;SDS011;36024;47.974;16.398;2022-11-20T10:00:05;23.60;;;17.90;;
50126;SDS011;36024;47.974;16.398;2022-11-20T10:02:47;24.87;;;19.60;;
50126;SDS011;36024;47.974;16.398;2022-11-20T10:05:20;24.10;;;19.50;;
50126;SDS011;36024;47.974;16.398;2022-11-20T10:07:54;25.10;;;19.53;;
50126;SDS011;36024;47.974;16.398;2022-11-20T10:10:29;22.77;;;18.50;;
50126;SDS011;36024;47.974;16.398;2022-11-20T10:18:21;24.30;;;18.60;;
50126;SDS011;36024;47.974;16.398;2022-11-20T10:26:38;23.73;;;19.13;;
50126;SDS011;36024;47.974;16.398;2022-11-20T10:29:17;27.73;;;21.47;;
50126;SDS011;36024;47.974;16.398;2022-11-20T10:31:46;26.17;;;21.20;;
50126;SDS011;36024;47.974;16.398;2022-11-20T10:36:55;27.70;;;21.33;;
50126;SDS011;36024;47.974;16.398;2022-11-20T10:39:26;26.00;;;20.37;;
50126;SDS011;36024;47.974;16.398;2022-11-20T10:41:59;25.80;;;20.57;;
50126;SDS011;36024;47.974;16.398;2022-11-20T10:44:26;26.43;;;20.80;;
50126;SDS011;36024;47.974;16.398;2022-11-20T10:47:14;28.77;;;22.40;;
50126;SDS011;36024;47.974;16.398;2022-11-20T10:49:46;32.50;;;23.67;;
50126;SDS011;36024;47.974;16.398;2022-11-20T11:00:14;32.83;;;22.60;;
50126;SDS011;36024;47.974;16.398;2022-11-20T11:02:50;26.00;;;19.87;;
50126;SDS011;36024;47.974;16.398;2022-11-20T11:08:10;27.53;;;22.00;;
50126;SDS011;36024;47.974;16.398;2022-11-20T11:10:41;28.33;;;22.00;;
50126;SDS011;36024;47.974;16.398;2022-11-20T11:13:24;28.13;;;21.17;;
50126;SDS011;36024;47.974;16.398;2022-11-20T11:15:51;28.30;;;20.37;;
50126;SDS011;36024;47.974;16.398;2022-11-20T11:18:26;25.17;;;20.23;;
50126;SDS011;36024;47.974;16.398;2022-11-20T11:20:54;27.67;;;21.87;;
50126;SDS011;36024;47.974;16.398;2022-11-20T11:23:40;29.73;;;21.73;;
50126;SDS011;36024;47.974;16.398;2022-11-20T11:26:23;25.90;;;20.50;;
50126;SDS011;36024;47.974;16.398;2022-11-20T11:31:33;27.93;;;20.67;;
50126;SDS011;36024;47.974;16.398;2022-11-20T11:34:18;25.57;;;19.93;;
50126;SDS011;36024;47.974;16.398;2022-11-20T11:36:55;24.80;;;19.20;;
50126;SDS011;36024;47.974;16.398;2022-11-20T11:39:23;24.60;;;18.23;;
50126;SDS011;36024;47.974;16.398;2022-11-20T11:41:50;27.10;;;21.63;;
50126;SDS011;36024;47.974;16.398;2022-11-20T11:44:21;31.87;;;24.13;;
50126;SDS011;36024;47.974;16.398;2022-11-20T11:47:12;23.47;;;18.43;;
50126;SDS011;36024;47.974;16.398;2022-11-20T11:50:01;21.07;;;17.23;;
50126;SDS011;36024;47.974;16.398;2022-11-20T11:52:38;23.13;;;17.63;;
50126;SDS011;36024;47.974;16.398;2022-11-20T12:01:04;22.93;;;18.13;;
50126;SDS011;36024;47.974;16.398;2022-11-20T12:03:37;19.70;;;15.80;;
50126;SDS011;36024;47.974;16.398;2022-11-20T12:06:11;24.40;;;18.23;;
50126;SDS011;36024;47.974;16.398;2022-11-20T12:08:44;25.30;;;19.83;;
50126;SDS011;36024;47.974;16.398;2022-11-20T12:11:17;24.00;;;18.30;;
50126;SDS011;36024;47.974;16.398;2022-11-20T12:16:41;24.90;;;19.20;;
50126;SDS011;36024;47.974;16.398;2022-11-20T12:19:12;24.60;;;18.27;;
50126;SDS011;36024;47.974;16.398;2022-11-20T12:21:49;29.53;;;24.60;;
50126;SDS011;36024;47.974;16.398;2022-11-20T12:24:42;25.13;;;20.70;;
50126;SDS011;36024;47.974;16.398;2022-11-20T12:27:35;26.80;;;21.83;;
50126;SDS011;36024;47.974;16.398;2022-11-20T12:30:11;25.27;;;20.53;;
50126;SDS011;36024;47.974;16.398;2022-11-20T12:47:28;22.37;;;17.00;;
50126;SDS011;36024;47.974;16.398;2022-11-20T12:50:09;43.07;;;27.10;;
50126;SDS011;36024;47.974;16.398;2022-11-20T12:52:50;27.80;;;20.13;;
50126;SDS011;36024;47.974;16.398;2022-11-20T12:55:30;65.83;;;41.73;;
50126;SDS011;36024;47.974;16.398;2022-11-20T12:58:13;28.83;;;21.30;;
50126;SDS011;36024;47.974;16.398;2022-11-20T13:01:12;21.27;;;16.07;;
50126;SDS011;36024;47.974;16.398;2022-11-20T13:07:08;32.77;;;24.17;;
50126;SDS011;36024;47.974;16.398;2022-11-20T13:09:39;22.30;;;16.37;;
50126;SDS011;36024;47.974;16.398;2022-11-20T13:17:40;45.87;;;30.47;;
50126;SDS011;36024;47.974;16.398;2022-11-20T13:20:13;34.93;;;24.13;;
50126;SDS011;36024;47.974;16.398;2022-11-20T13:22:45;47.50;;;32.33;;
50126;SDS011;36024;47.974;16.398;2022-11-20T13:27:52;26.20;;;19.17;;
50126;SDS011;36024;47.974;16.398;2022-11-20T13:30:20;27.00;;;20.80;;
50126;SDS011;36024;47.974;16.398;2022-11-20T13:32:58;22.97;;;18.10;;
50126;SDS011;36024;47.974;16.398;2022-11-20T13:35:31;20.17;;;16.03;;
50126;SDS011;36024;47.974;16.398;2022-11-20T13:38:00;22.73;;;16.40;;
50126;SDS011;36024;47.974;16.398;2022-11-20T13:40:27;22.77;;;16.03;;
50126;SDS011;36024;47.974;16.398;2022-11-20T13:45:27;19.63;;;15.50;;
50126;SDS011;36024;47.974;16.398;2022-11-20T13:47:55;21.30;;;16.43;;
50126;SDS011;36024;47.974;16.398;2022-11-20T13:50:46;22.20;;;17.47;;
50126;SDS011;36024;47.974;16.398;2022-11-20T13:53:32;20.50;;;16.87;;
50126;SDS011;36024;47.974;16.398;2022-11-20T13:56:54;21.77;;;16.90;;
50126;SDS011;36024;47.974;16.398;2022-11-20T13:59:16;21.60;;;16.80;;
50126;SDS011;36024;47.974;16.398;2022-11-20T14:02:10;21.73;;;16.83;;
50126;SDS011;36024;47.974;16.398;2022-11-20T14:04:51;26.53;;;18.53;;
50126;SDS011;36024;47.974;16.398;2022-11-20T14:07:20;24.07;;;19.10;;
50126;SDS011;36024;47.974;16.398;2022-11-20T14:09:52;29.40;;;23.40;;
50126;SDS011;36024;47.974;16.398;2022-11-20T14:12:29;41.67;;;36.60;;
50126;SDS011;36024;47.974;16.398;2022-11-20T14:14:57;37.97;;;33.87;;
50126;SDS011;36024;47.974;16.398;2022-11-20T14:17:29;30.93;;;27.10;;
50126;SDS011;36024;47.974;16.398;2022-11-20T14:19:58;29.10;;;22.03;;
50126;SDS011;36024;47.974;16.398;2022-11-20T14:22:28;27.67;;;20.87;;
50126;SDS011;36024;47.974;16.398;2022-11-20T14:25:28;26.33;;;20.67;;
50126;SDS011;36024;47.974;16.398;2022-11-20T14:27:53;24.57;;;20.80;;
50126;SDS011;36024;47.974;16.398;2022-11-20T14:30:22;39.27;;;31.77;;
50126;SDS011;36024;47.974;16.398;2022-11-20T14:32:50;34.30;;;26.50;;
50126;SDS011;36024;47.974;16.398;2022-11-20T14:35:37;33.23;;;26.13;;
50126;SDS011;36024;47.974;16.398;2022-11-20T14:38:12;32.20;;;24.30;;
50126;SDS011;36024;47.974;16.398;2022-11-20T14:40:41;33.67;;;26.27;;
50126;SDS011;36024;47.974;16.398;2022-11-20T14:43:19;32.60;;;26.30;;
50126;SDS011;36024;47.974;16.398;2022-11-20T14:48:32;29.77;;;22.93;;
50126;SDS011;36024;47.974;16.398;2022-11-20T14:51:03;32.13;;;24.00;;
50126;SDS011;36024;47.974;16.398;2022-11-20T14:53:30;28.97;;;22.20;;
50126;SDS011;36024;47.974;16.398;2022-11-20T14:55:57;30.97;;;23.07;;
50126;SDS011;36024;47.974;16.398;2022-11-20T14:58:27;28.37;;;22.60;;
50126;SDS011;36024;47.974;16.398;2022-11-20T15:03:32;26.93;;;21.90;;
50126;SDS011;36024;47.974;16.398;2022-11-20T15:06:06;27.77;;;21.03;;
50126;SDS011;36024;47.974;16.398;2022-11-20T15:08:34;30.90;;;23.83;;
50126;SDS011;36024;47.974;16.398;2022-11-20T15:11:01;32.10;;;23.60;;
50126;SDS011;36024;47.974;16.398;2022-11-20T15:13:32;29.90;;;24.50;;
50126;SDS011;36024;47.974;16.398;2022-11-20T15:16:00;30.93;;;23.77;;
50126;SDS011;36024;47.974;16.398;2022-11-20T15:18:46;27.67;;;21.43;;
50126;SDS011;36024;47.974;16.398;2022-11-20T15:21:14;25.73;;;20.87;;
50126;SDS011;36024;47.974;16.398;2022-11-20T15:23:42;30.10;;;22.10;;
50126;SDS011;36024;47.974;16.398;2022-11-20T15:26:09;30.87;;;22.57;;
50126;SDS011;36024;47.974;16.398;2022-11-20T15:28:46;28.47;;;21.93;;
50126;SDS011;36024;47.974;16.398;2022-11-20T15:31:18;28.67;;;20.80;;
50126;SDS011;36024;47.974;16.398;2022-11-20T15:33:46;26.83;;;19.90;;
50126;SDS011;36024;47.974;16.398;2022-11-20T15:36:12;27.57;;;19.67;;
50126;SDS011;36024;47.974;16.398;2022-11-20T15:38:39;25.03;;;19.07;;
50126;SDS011;36024;47.974;16.398;2022-11-20T15:41:06;27.83;;;19.23;;
50126;SDS011;36024;47.974;16.398;2022-11-20T15:43:33;24.63;;;19.00;;
50126;SDS011;36024;47.974;16.398;2022-11-20T15:46:01;25.60;;;19.63;;
50126;SDS011;36024;47.974;16.398;2022-11-20T15:48:39;37.00;;;25.10;;
50126;SDS011;36024;47.974;16.398;2022-11-20T15:53:54;33.80;;;22.57;;
50126;SDS011;36024;47.974;16.398;2022-11-20T15:56:21;31.83;;;22.53;;
50126;SDS011;36024;47.974;16.398;2022-11-20T15:58:47;29.97;;;21.27;;
50126;SDS011;36024;47.974;16.398;2022-11-20T16:01:16;28.57;;;21.90;;
50126;SDS011;36024;47.974;16.398;2022-11-20T16:03:44;31.17;;;21.93;;
50126;SDS011;36024;47.974;16.398;2022-11-20T16:06:11;29.07;;;21.10;;
50126;SDS011;36024;47.974;16.398;2022-11-20T16:08:37;31.53;;;21.13;;
50126;SDS011;36024;47.974;16.398;2022-11-20T16:11:04;29.93;;;20.67;;
50126;SDS011;36024;47.974;16.398;2022-11-20T16:13:31;26.63;;;19.17;;
50126;SDS011;36024;47.974;16.398;2022-11-20T16:16:23;26.37;;;19.40;;
50126;SDS011;36024;47.974;16.398;2022-11-20T16:18:54;28.43;;;19.53;;
50126;SDS011;36024;47.974;16.398;2022-11-20T16:21:21;26.67;;;19.70;;
50126;SDS011;36024;47.974;16.398;2022-11-20T16:23:53;27.67;;;20.00;;
50126;SDS011;36024;47.974;16.398;2022-11-20T16:26:20;27.63;;;19.97;;
50126;SDS011;36024;47.974;16.398;2022-11-20T16:28:47;28.90;;;19.73;;
50126;SDS011;36024;47.974;16.398;2022-11-20T16:31:14;28.10;;;20.27;;
50126;SDS011;36024;47.974;16.398;2022-11-20T16:33:44;26.47;;;20.17;;
50126;SDS011;36024;47.974;16.398;2022-11-20T16:36:15;29.07;;;20.77;;
50126;SDS011;36024;47.974;16.398;2022-11-20T16:38:42;35.23;;;23.50;;
50126;SDS011;36024;47.974;16.398;2022-11-20T16:41:08;33.17;;;23.57;;
50126;SDS011;36024;47.974;16.398;2022-11-20T16:43:49;33.13;;;23.70;;
50126;SDS011;36024;47.974;16.398;2022-11-20T16:46:17;34.97;;;25.63;;
50126;SDS011;36024;47.974;16.398;2022-11-20T16:48:51;39.23;;;27.77;;
50126;SDS011;36024;47.974;16.398;2022-11-20T16:51:21;66.83;;;41.07;;
50126;SDS011;36024;47.974;16.398;2022-11-20T16:53:49;47.63;;;31.30;;
50126;SDS011;36024;47.974;16.398;2022-11-20T16:56:17;48.13;;;31.60;;
50126;SDS011;36024;47.974;16.398;2022-11-20T16:58:46;42.53;;;30.20;;
50126;SDS011;36024;47.974;16.398;2022-11-20T17:01:14;56.07;;;37.73;;
50126;SDS011;36024;47.974;16.398;2022-11-20T17:03:43;63.70;;;41.10;;
50126;SDS011;36024;47.974;16.398;2022-11-20T17:06:15;64.70;;;42.77;;
50126;SDS011;36024;47.974;16.398;2022-11-20T17:08:43;48.03;;;32.53;;
50126;SDS011;36024;47.974;16.398;2022-11-20T17:11:11;42.97;;;29.87;;
50126;SDS011;36024;47.974;16.398;2022-11-20T17:13:38;41.20;;;29.13;;
50126;SDS011;36024;47.974;16.398;2022-11-20T17:16:07;44.37;;;30.20;;
50126;SDS011;36024;47.974;16.398;2022-11-20T17:18:40;42.93;;;29.73;;
50126;SDS011;36024;47.974;16.398;2022-11-20T17:21:06;46.80;;;31.63;;
50126;SDS011;36024;47.974;16.398;2022-11-20T17:23:34;59.03;;;38.53;;
50126;SDS011;36024;47.974;16.398;2022-11-20T17:26:03;54.37;;;36.70;;
50126;SDS011;36024;47.974;16.398;2022-11-20T17:28:31;50.57;;;33.70;;
50126;SDS011;36024;47.974;16.398;2022-11-20T17:31:01;47.83;;;32.63;;
50126;SDS011;36024;47.974;16.398;2022-11-20T17:33:29;42.33;;;29.40;;
50126;SDS011;36024;47.974;16.398;2022-11-20T17:35:56;35.10;;;24.83;;
50126;SDS011;36024;47.974;16.398;2022-11-20T17:38:23;30.90;;;21.13;;
50126;SDS011;36024;47.974;16.398;2022-11-20T17:40:49;28.30;;;19.67;;
50126;SDS011;36024;47.974;16.398;2022-11-20T17:43:16;36.13;;;23.07;;
50126;SDS011;36024;47.974;16.398;2022-11-20T17:45:43;34.00;;;23.13;;
50126;SDS011;36024;47.974;16.398;2022-11-20T17:48:10;31.33;;;22.07;;
50126;SDS011;36024;47.974;16.398;2022-11-20T17:50:37;30.67;;;22.20;;
50126;SDS011;36024;47.974;16.398;2022-11-20T17:53:05;29.50;;;20.07;;
50126;SDS011;36024;47.974;16.398;2022-11-20T17:55:32;29.23;;;20.37;;
50126;SDS011;36024;47.974;16.398;2022-11-20T17:58:21;28.17;;;19.70;;
50126;SDS011;36024;47.974;16.398;2022-11-20T18:00:50;31.17;;;20.13;;
50126;SDS011;36024;47.974;16.398;2022-11-20T18:03:17;32.97;;;20.13;;
50126;SDS011;36024;47.974;16.398;2022-11-20T18:05:43;28.63;;;19.63;;
50126;SDS011;36024;47.974;16.398;2022-11-20T18:08:10;28.73;;;19.00;;
50126;SDS011;36024;47.974;16.398;2022-11-20T18:10:36;32.50;;;20.87;;
50126;SDS011;36024;47.974;16.398;2022-11-20T18:13:03;31.83;;;21.00;;